createdAt,value
2018-10-09T00:04:52.345Z,14.3
2018-10-09T00:09:50.619Z,9.4
2018-10-09T00:14:46.901Z,14.9
2018-10-09T00:19:43.864Z,14.9
2018-10-09T00:24:41.098Z,14.1
2018-10-09T00:29:38.960Z,14.8
2018-10-09T00:34:36.814Z,14.8
2018-10-09T00:39:34.424Z,14.8
2018-10-09T00:44:37.275Z,14.8
2018-10-09T00:49:33.750Z,14
2018-10-09T00:54:30.596Z,14.7
2018-10-09T00:59:28.934Z,13.9
2018-10-09T01:04:26.114Z,13.9
2018-10-09T01:09:23.517Z,14.5
2018-10-09T01:14:20.266Z,14.2
2018-10-09T01:19:17.670Z,13.3
2018-10-09T01:24:14.438Z,14.3
2018-10-09T01:29:16.729Z,14.3
2018-10-09T01:34:13.623Z,13.6
2018-10-09T01:39:10.603Z,13.6
2018-10-09T01:44:07.249Z,14.3
2018-10-09T01:49:05.898Z,14.2
2018-10-09T01:54:04.158Z,13.6
2018-10-09T01:59:01.275Z,12.8
2018-10-09T02:04:00.039Z,13.2
2018-10-09T02:08:57.286Z,13.1
2018-10-09T02:13:55.104Z,13.1
2018-10-09T02:18:54.000Z,13.8
2018-10-09T02:23:52.071Z,13.1
2018-10-09T02:28:48.274Z,13.6
2018-10-09T02:33:45.221Z,13.8
2018-10-09T02:38:42.180Z,13.7
2018-10-09T02:43:38.877Z,13.6
2018-10-09T02:48:36.158Z,12.8
2018-10-09T02:53:35.717Z,12.8
2018-10-09T02:58:37.636Z,12.8
2018-10-09T03:03:38.227Z,12.7
2018-10-09T03:08:42.804Z,13.4
2018-10-09T03:13:42.479Z,12.6
2018-10-09T03:18:43.279Z,12.6
2018-10-09T03:23:43.093Z,13.4
2018-10-09T03:28:41.397Z,13.4
2018-10-09T03:33:41.652Z,13.3
2018-10-09T03:38:39.484Z,12.6
2018-10-09T03:43:38.318Z,13.3
2018-10-09T03:48:35.781Z,13.2
2018-10-09T03:53:38.215Z,12.5
2018-10-09T03:58:39.146Z,13.1
2018-10-09T04:03:38.354Z,13.1
2018-10-09T04:08:37.823Z,13
2018-10-09T04:13:35.259Z,12.1
2018-10-09T04:18:33.601Z,12.1
2018-10-09T04:23:32.497Z,12.9
2018-10-09T04:28:29.845Z,12.1
2018-10-09T04:33:27.728Z,12
2018-10-09T04:38:24.685Z,12.7
2018-10-09T04:43:22.973Z,12
2018-10-09T04:48:19.844Z,12
2018-10-09T04:53:17.321Z,12.7
2018-10-09T04:58:14.376Z,12.6
2018-10-09T05:03:12.228Z,12.6
2018-10-09T05:08:09.396Z,12.6
2018-10-09T05:13:06.727Z,12.2
2018-10-09T05:18:04.017Z,12.5
2018-10-09T05:23:01.891Z,12.2
2018-10-09T05:27:59.099Z,9.7
2018-10-09T05:33:01.411Z,12.5
2018-10-09T05:43:07.546Z,12.7
2018-10-09T05:48:04.333Z,12.6
2018-10-09T05:53:01.901Z,11.9
2018-10-09T05:57:59.015Z,12.7
2018-10-09T06:02:56.109Z,12.7
2018-10-09T06:07:52.757Z,12.7
2018-10-09T06:12:49.772Z,12.8
2018-10-09T06:17:47.193Z,12.6
2018-10-09T06:22:43.692Z,11.9
2018-10-09T06:27:41.912Z,12.3
2018-10-09T06:32:39.327Z,13.1
2018-10-09T06:37:36.735Z,12.5
2018-10-09T06:42:33.365Z,13.3
2018-10-09T06:47:30.516Z,12.6
2018-10-09T06:52:27.687Z,13.4
2018-10-09T06:57:24.288Z,12.8
2018-10-09T07:02:21.165Z,13.6
2018-10-09T07:07:17.263Z,13.7
2018-10-09T07:12:14.231Z,13.8
2018-10-09T07:17:11.061Z,13.6
2018-10-09T07:22:08.223Z,13.9
2018-10-09T07:27:06.867Z,14
2018-10-09T07:32:03.328Z,14.1
2018-10-09T07:37:01.318Z,14.2
2018-10-09T07:41:58.740Z,14.3
2018-10-09T07:46:55.117Z,14.4
2018-10-09T07:51:52.510Z,14.5
2018-10-09T07:56:49.994Z,13.9
2018-10-09T08:01:47.714Z,14
2018-10-09T08:06:44.129Z,14.8
2018-10-09T08:11:41.177Z,7.6
2018-10-09T08:16:38.164Z,15
2018-10-09T08:21:35.177Z,15.1
2018-10-09T08:26:32.116Z,15.2
2018-10-09T08:31:29.009Z,15.3
2018-10-09T08:36:26.328Z,14.7
2018-10-09T08:41:23.308Z,14.9
2018-10-09T08:46:20.100Z,15.7
2018-10-09T08:51:16.951Z,15.8
2018-10-09T08:56:14.118Z,15.9
2018-10-09T09:01:11.156Z,15.4
2018-10-09T09:06:08.239Z,16.2
2018-10-09T09:11:05.352Z,16.3
2018-10-09T09:16:02.589Z,16.4
2018-10-09T09:20:59.615Z,16.6
2018-10-09T09:25:57.724Z,16.1
2018-10-09T09:30:56.009Z,16
2018-10-09T09:35:58.457Z,17.1
2018-10-09T09:40:54.224Z,17.2
2018-10-09T09:45:51.289Z,17.2
2018-10-09T09:50:48.222Z,17.1
2018-10-09T09:55:46.056Z,17.3
2018-10-09T10:00:43.102Z,18.5
2018-10-09T10:05:41.497Z,18.8
2018-10-09T10:10:38.884Z,19
2018-10-09T10:15:37.516Z,19.1
2018-10-09T10:20:34.507Z,19.2
2018-10-09T10:25:32.003Z,19.3
2018-10-09T10:30:29.204Z,19.1
2018-10-09T10:35:26.230Z,18.7
2018-10-09T10:40:25.282Z,19.4
2018-10-09T10:45:21.841Z,18.8
2018-10-09T10:50:18.844Z,18.8
2018-10-09T10:55:16.655Z,19.5
2018-10-09T11:00:13.692Z,19
2018-10-09T11:05:12.045Z,19.8
2018-10-09T11:10:11.868Z,19.8
2018-10-09T11:15:08.722Z,20.1
2018-10-09T11:20:05.721Z,19.6
2018-10-09T11:25:02.894Z,19.7
2018-10-09T11:30:02.245Z,20
2018-10-09T11:34:58.929Z,20.1
2018-10-09T11:39:59.348Z,20.9
2018-10-09T11:44:56.472Z,21.1
2018-10-09T11:49:54.089Z,20.6
2018-10-09T11:54:51.570Z,20.7
2018-10-09T11:59:49.039Z,20.8
2018-10-09T12:04:46.563Z,21
2018-10-09T12:09:44.776Z,21.7
2018-10-09T12:14:42.182Z,21.8
2018-10-09T12:19:39.087Z,21.2
2018-10-09T12:24:36.053Z,21.2
2018-10-09T12:29:32.767Z,21.9
2018-10-09T12:34:28.869Z,21.3
2018-10-09T12:39:26.449Z,21.9
2018-10-09T12:44:25.280Z,22
2018-10-09T12:49:22.117Z,22
2018-10-09T12:54:19.801Z,21.1
2018-10-09T12:59:18.151Z,21.3
2018-10-09T13:04:16.270Z,21.9
2018-10-09T13:09:12.902Z,21.2
2018-10-09T13:14:11.019Z,21.7
2018-10-09T13:19:08.173Z,21.6
2018-10-09T13:24:06.301Z,21.5
2018-10-09T13:29:03.521Z,20.8
2018-10-09T13:34:01.431Z,21.1
2018-10-09T13:38:57.951Z,20.6
2018-10-09T13:43:56.889Z,21.1
2018-10-09T13:48:53.183Z,20.4
2018-10-09T13:53:52.217Z,19.9
2018-10-09T13:58:48.857Z,20.2
2018-10-09T14:03:45.966Z,20.2
2018-10-09T14:08:42.904Z,20.1
2018-10-09T14:13:39.590Z,20
2018-10-09T14:18:37.635Z,20.5
2018-10-09T14:23:35.372Z,20.3
2018-10-09T14:28:33.238Z,20.1
2018-10-09T14:33:29.885Z,20.3
2018-10-09T14:38:26.806Z,19.5
2018-10-09T14:43:25.567Z,20.1
2018-10-09T14:48:21.249Z,19.4
2018-10-09T14:53:19.757Z,20
2018-10-09T14:58:16.649Z,19.2
2018-10-09T15:03:14.281Z,19.8
2018-10-09T15:08:11.678Z,19
2018-10-09T15:13:09.858Z,19.6
2018-10-09T15:18:06.399Z,18.9
2018-10-09T15:23:02.962Z,18.7
2018-10-09T15:27:59.858Z,18
2018-10-09T15:32:56.400Z,18.6
2018-10-09T15:37:54.733Z,18.5
2018-10-09T15:42:51.804Z,19.1
2018-10-09T15:47:49.247Z,18
2018-10-09T15:52:47.082Z,18.2
2018-10-09T15:57:44.390Z,18.8
2018-10-09T16:02:44.827Z,18.7
2018-10-09T16:07:43.498Z,18
2018-10-09T16:12:40.721Z,18.6
2018-10-09T16:17:38.450Z,17.9
2018-10-09T16:22:35.345Z,18.4
2018-10-09T16:27:33.618Z,18.4
2018-10-09T16:32:30.954Z,17.6
2018-10-09T16:37:34.948Z,17.5
2018-10-09T16:42:33.068Z,18.2
2018-10-09T16:47:30.173Z,18.1
2018-10-09T16:52:29.688Z,18
2018-10-09T16:57:33.892Z,17.8
2018-10-09T17:02:28.916Z,17.3
2018-10-09T17:07:26.878Z,17.2
2018-10-09T17:12:23.432Z,17.1
2018-10-09T17:17:20.782Z,17.8
2018-10-09T17:22:17.792Z,17.7
2018-10-09T17:27:14.953Z,16.9
2018-10-09T17:32:11.840Z,17.7
2018-10-09T17:37:08.802Z,17.6
2018-10-09T17:42:06.256Z,17.5
2018-10-09T17:47:02.917Z,16.8
2018-10-09T17:52:02.555Z,16.7
2018-10-09T17:57:00.168Z,17.3
2018-10-09T18:01:56.838Z,17.2
2018-10-09T18:06:54.086Z,17.2
2018-10-09T18:11:52.869Z,16.6
2018-10-09T18:16:51.294Z,17.2
2018-10-09T18:21:47.648Z,16.8
2018-10-09T18:26:44.125Z,17
2018-10-09T18:31:40.965Z,17
2018-10-09T18:36:38.611Z,16.3
2018-10-09T18:41:35.851Z,16.3
2018-10-09T18:46:33.301Z,16.9
2018-10-09T18:51:30.929Z,16.9
2018-10-09T18:56:29.006Z,16.9
2018-10-09T19:01:26.089Z,16.2
2018-10-09T19:06:22.595Z,16.8
2018-10-09T19:11:20.642Z,16.8
2018-10-09T19:16:17.318Z,16.5
2018-10-09T19:21:14.224Z,15.4
2018-10-09T19:26:10.961Z,16.6
2018-10-09T19:31:08.690Z,15.9
2018-10-09T19:36:05.724Z,15.9
2018-10-09T19:41:02.679Z,16.5
2018-10-09T19:46:00.082Z,15.8
2018-10-09T19:50:56.877Z,15.7
2018-10-09T19:55:54.223Z,16
2018-10-09T20:00:51.156Z,15.6
2018-10-09T20:05:47.808Z,16.2
2018-10-09T20:10:45.371Z,15.4
2018-10-09T20:15:42.900Z,15.4
2018-10-09T20:20:39.714Z,15.4
2018-10-09T20:25:37.555Z,15.9
2018-10-09T20:30:34.509Z,15.9
2018-10-09T20:35:31.389Z,15.8
2018-10-09T20:40:29.600Z,15.7
2018-10-09T20:45:26.246Z,15.7
2018-10-09T20:50:23.179Z,15.6
2018-10-09T20:55:20.228Z,15.3
2018-10-09T21:00:17.626Z,14.8
2018-10-09T21:05:14.470Z,15.5
2018-10-09T21:10:11.828Z,14.7
2018-10-09T21:15:08.684Z,15.3
2018-10-09T21:20:05.982Z,14.6
2018-10-09T21:25:03.197Z,14.8
2018-10-09T21:30:00.741Z,15.1
2018-10-09T21:34:57.976Z,14.4
2018-10-09T21:39:54.759Z,15.1
2018-10-09T21:44:51.530Z,15.1
2018-10-09T21:49:48.464Z,15
2018-10-09T21:54:45.248Z,14.3
2018-10-09T21:59:42.245Z,14.6
2018-10-09T22:04:39.638Z,14.8
2018-10-09T22:09:36.951Z,14.7
2018-10-09T22:14:33.731Z,14.7
2018-10-09T22:19:30.742Z,14.7
2018-10-09T22:24:27.957Z,14.7
2018-10-09T22:29:24.806Z,14.7
2018-10-09T22:34:21.365Z,13.8
2018-10-09T22:39:19.111Z,14.4
2018-10-09T22:44:15.861Z,14.4
2018-10-09T22:49:12.643Z,13.6
2018-10-09T22:54:09.929Z,14.3
2018-10-09T22:59:06.070Z,14.3
2018-10-09T23:04:03.318Z,14.2
2018-10-09T23:08:59.941Z,14.2
2018-10-09T23:13:56.997Z,14.1
2018-10-09T23:18:54.084Z,13.3
2018-10-09T23:23:51.159Z,14
2018-10-09T23:28:48.064Z,13.9
2018-10-09T23:33:44.537Z,12.8
2018-10-09T23:38:41.497Z,13.8
2018-10-09T23:43:38.036Z,13.8
2018-10-09T23:48:38.919Z,13.7
2018-10-09T23:53:35.979Z,13
2018-10-09T23:58:32.675Z,13.6
